createdAt,value
2018-03-08T00:01:17.634Z,96963.22
2018-03-08T00:03:46.696Z,96965.13
2018-03-08T00:06:15.837Z,96964.38
2018-03-08T00:08:44.717Z,96959.48
2018-03-08T00:11:14.995Z,96974.02
2018-03-08T00:13:44.997Z,96971.45
2018-03-08T00:16:13.965Z,96979.27
2018-03-08T00:18:42.634Z,96977.38
2018-03-08T00:21:11.816Z,96983.15
2018-03-08T00:23:41.188Z,96972.17
2018-03-08T00:26:10.102Z,96965.47
2018-03-08T00:28:40.240Z,96976.48
2018-03-08T00:31:09.012Z,96976.34
2018-03-08T00:33:38.107Z,96986.95
2018-03-08T00:36:08.358Z,96984.30
2018-03-08T00:38:37.040Z,96985.80
2018-03-08T00:41:05.603Z,96987.23
2018-03-08T00:46:27.169Z,96997.03
2018-03-08T00:48:55.900Z,97002.36
2018-03-08T00:51:24.873Z,97001.14
2018-03-08T00:53:53.627Z,97004.92
2018-03-08T00:56:22.208Z,97002.67
2018-03-08T00:58:50.742Z,97000.68
2018-03-08T01:01:21.135Z,96998.44
2018-03-08T01:03:49.684Z,96999.91
2018-03-08T01:06:18.394Z,96997.32
2018-03-08T01:08:47.312Z,97003.20
2018-03-08T01:11:15.968Z,97003.09
2018-03-08T01:13:44.486Z,97001.25
2018-03-08T01:16:13.584Z,97000.50
2018-03-08T01:21:18.154Z,96996.20
2018-03-08T01:23:46.938Z,97000.86
2018-03-08T01:26:16.930Z,97000.72
2018-03-08T01:28:45.530Z,96998.39
2018-03-08T01:31:14.288Z,96999.05
2018-03-08T01:33:43.768Z,97001.03
2018-03-08T01:36:21.391Z,97006.03
2018-03-08T01:38:50.091Z,96999.52
2018-03-08T01:41:20.170Z,96999.61
2018-03-08T01:43:48.827Z,97001.80
2018-03-08T01:46:17.381Z,97000.03
2018-03-08T01:48:45.902Z,97000.84
2018-03-08T01:51:16.189Z,97010.34
2018-03-08T01:53:44.796Z,97005.69
2018-03-08T01:56:13.482Z,97003.33
2018-03-08T01:58:42.112Z,97000.42
2018-03-08T02:01:11.037Z,97005.44
2018-03-08T02:03:39.563Z,97003.63
2018-03-08T02:06:08.378Z,97002.20
2018-03-08T02:08:37.001Z,97003.14
2018-03-08T02:11:07.145Z,97003.01
2018-03-08T02:13:35.728Z,97002.59
2018-03-08T05:47:09.786Z,97115.66
2018-03-08T05:49:39.626Z,97110.20
2018-03-08T05:52:09.682Z,97109.23
2018-03-08T05:54:46.661Z,97121.02
2018-03-08T05:57:16.369Z,97140.30
2018-03-08T05:59:46.225Z,97143.89
2018-03-08T06:02:15.940Z,97138.96
2018-03-08T06:04:46.272Z,97137.79
2018-03-08T06:07:15.870Z,97139.31
2018-03-08T06:09:45.722Z,97140.77
2018-03-08T06:12:15.582Z,97138.72
2018-03-08T06:14:45.269Z,97144.39
2018-03-08T06:17:14.751Z,97146.39
2018-03-08T06:19:44.229Z,97144.98
2018-03-08T06:22:13.983Z,97151.25
2018-03-08T06:24:43.720Z,97156.70
2018-03-08T06:27:13.412Z,97151.22
2018-03-08T06:29:42.818Z,97159.44
2018-03-08T06:32:12.338Z,97156.55
2018-03-08T06:34:41.731Z,97149.09
2018-03-08T06:37:11.312Z,97145.22
2018-03-08T06:39:42.277Z,97152.92
2018-03-08T06:42:11.823Z,97150.38
2018-03-08T06:44:41.245Z,97163.70
2018-03-08T06:47:12.914Z,97169.02
2018-03-08T06:49:42.444Z,97177.62
2018-03-08T06:52:13.061Z,97171.14
2018-03-08T06:54:42.650Z,97179.63
2018-03-08T06:57:12.143Z,97176.89
2018-03-08T06:59:41.588Z,97179.01
2018-03-08T07:02:11.344Z,97170.66
2018-03-08T07:04:41.002Z,97168.20
2018-03-08T07:07:12.618Z,97171.22
2018-03-08T07:09:42.040Z,97166.03
2018-03-08T07:12:11.515Z,97171.76
2018-03-08T07:14:41.151Z,97168.63
2018-03-08T07:17:10.822Z,97169.55
2018-03-08T07:19:42.841Z,97174.16
2018-03-08T07:22:13.050Z,97173.73
2018-03-08T07:24:43.537Z,97171.22
2018-03-08T07:27:12.895Z,97169.84
2018-03-08T07:29:42.342Z,97172.56
2018-03-08T07:32:11.921Z,97176.26
2018-03-08T07:34:42.797Z,97183.02
2018-03-08T07:37:14.237Z,97173.06
2018-03-08T07:39:43.715Z,97176.69
2018-03-08T07:42:13.071Z,97178.48
2018-03-08T07:44:42.559Z,97177.71
2018-03-08T07:47:12.335Z,97187.28
2018-03-08T07:49:42.994Z,97185.83
2018-03-08T07:52:12.560Z,97184.52
2018-03-08T07:54:41.905Z,97179.60
2018-03-08T07:59:47.555Z,97178.57
2018-03-08T08:02:16.974Z,97173.39
2018-03-08T08:05:00.867Z,97173.92
2018-03-08T08:09:41.150Z,97179.25
2018-03-08T08:12:10.470Z,97186.48
2018-03-08T08:14:39.786Z,97193.81
2018-03-08T08:17:09.333Z,97180.55
2018-03-08T08:19:38.638Z,97189.15
2018-03-08T08:22:08.241Z,97185.83
2018-03-08T08:24:38.967Z,97194.47
2018-03-08T08:27:08.842Z,97194.20
2018-03-08T08:29:39.593Z,97191.75
2018-03-08T08:32:09.392Z,97194.88
2018-03-08T08:34:38.900Z,97188.87
2018-03-08T08:37:08.761Z,97190.78
2018-03-08T08:39:38.058Z,97188.96
2018-03-08T08:42:08.545Z,97184.95
2018-03-08T08:44:38.160Z,97182.56
2018-03-08T08:47:08.169Z,97180.57
2018-03-08T08:49:39.332Z,97182.63
2018-03-08T08:52:09.197Z,97181.72
2018-03-08T08:54:40.565Z,97186.45
2018-03-08T08:57:10.110Z,97184.22
2018-03-08T08:59:39.299Z,97183.45
2018-03-08T09:02:09.205Z,97176.98
2018-03-08T09:04:39.807Z,97186.22
2018-03-08T09:07:09.321Z,97178.72
2018-03-08T09:10:22.084Z,97191.05
2018-03-08T09:12:51.713Z,97188.36
2018-03-08T09:15:21.028Z,97189.70
2018-03-08T09:17:50.509Z,97190.21
2018-03-08T09:20:19.575Z,97200.06
2018-03-08T09:22:48.926Z,97191.72
2018-03-08T09:25:18.374Z,97202.06
2018-03-08T09:27:47.929Z,97197.92
2018-03-08T09:30:17.646Z,97201.75
2018-03-08T09:32:47.253Z,97193.58
2018-03-08T09:35:19.582Z,97192.50
2018-03-08T09:37:49.131Z,97187.70
2018-03-08T09:40:18.402Z,97192.56
2018-03-08T09:42:47.592Z,97190.52
2018-03-08T09:45:17.160Z,97197.33
2018-03-08T09:47:46.527Z,97194.63
2018-03-08T09:50:15.860Z,97187.66
2018-03-08T09:52:45.433Z,97188.17
2018-03-08T09:55:14.614Z,97188.34
2018-03-08T09:57:43.945Z,97180.88
2018-03-08T10:00:14.545Z,97175.27
2018-03-08T10:02:44.271Z,97187.94
2018-03-08T10:05:13.587Z,97172.08
2018-03-08T10:07:43.092Z,97184.66
2018-03-08T10:10:12.861Z,97183.36
2018-03-08T10:12:42.177Z,97179.08
2018-03-08T10:15:11.700Z,97178.42
2018-03-08T10:17:40.804Z,97174.86
2018-03-08T10:20:10.383Z,97170.80
2018-03-08T10:22:40.299Z,97162.85
2018-03-08T10:25:10.222Z,97165.09
2018-03-08T10:27:40.745Z,97159.46
2018-03-08T10:30:11.105Z,97152.51
2018-03-08T10:32:40.434Z,97147.36
2018-03-08T10:35:10.207Z,97144.44
2018-03-08T10:37:40.019Z,97140.74
2018-03-08T10:40:10.093Z,97147.36
2018-03-08T10:42:44.893Z,97146.02
2018-03-08T10:45:08.965Z,97148.39
2018-03-08T10:47:38.088Z,97145.27
2018-03-08T10:50:07.595Z,97150.87
2018-03-08T10:52:36.678Z,97147.02
2018-03-08T10:55:05.819Z,97142.71
2018-03-08T10:57:34.924Z,97145.08
2018-03-08T11:00:04.284Z,97143.75
2018-03-08T11:02:34.994Z,97139.78
2018-03-08T11:05:04.347Z,97136.33
2018-03-08T11:07:33.408Z,97130.89
2018-03-08T11:10:02.573Z,97127.71
2018-03-08T11:12:32.893Z,97114.83
2018-03-08T11:15:02.083Z,97108.00
2018-03-08T11:17:31.119Z,97111.28
2018-03-08T11:20:00.114Z,97104.56
2018-03-08T11:22:29.769Z,97105.00
2018-03-08T11:24:59.040Z,97093.66
2018-03-08T11:27:28.092Z,97096.13
2018-03-08T11:29:57.430Z,97096.41
2018-03-08T11:32:28.642Z,97096.41
2018-03-08T11:34:57.866Z,97099.59
2018-03-08T11:37:26.882Z,97099.75
2018-03-08T11:39:55.963Z,97084.84
2018-03-08T11:42:25.730Z,97087.22
2018-03-08T11:44:54.689Z,97082.77
2018-03-08T11:47:24.741Z,97083.72
2018-03-08T11:49:53.067Z,97077.59
2018-03-08T11:52:22.410Z,97067.22
2018-03-08T11:54:51.656Z,97073.39
2018-03-08T11:57:21.048Z,97062.25
2018-03-08T11:59:50.277Z,97069.77
2018-03-08T12:02:19.287Z,97071.93
2018-03-08T12:04:48.365Z,97055.33
2018-03-08T12:07:17.575Z,97051.96
2018-03-08T12:09:46.748Z,97058.77
2018-03-08T12:12:16.127Z,97055.61
2018-03-08T12:14:45.191Z,97054.80
2018-03-08T12:17:14.247Z,97049.08
2018-03-08T12:19:43.346Z,97057.52
2018-03-08T12:22:12.774Z,97039.13
2018-03-08T12:24:41.985Z,97029.83
2018-03-08T12:27:11.176Z,97036.33
2018-03-08T12:29:40.382Z,97022.56
2018-03-08T12:32:12.007Z,97028.41
2018-03-08T12:34:41.116Z,97015.61
2018-03-08T12:37:11.163Z,97024.50
2018-03-08T12:39:40.446Z,97010.09
2018-03-08T12:42:10.202Z,97008.37
2018-03-08T12:44:50.575Z,96995.44
2018-03-08T12:47:20.301Z,97000.28
2018-03-08T12:49:49.487Z,96991.32
2018-03-08T12:52:18.796Z,96979.36
2018-03-08T12:54:47.838Z,96981.95
2018-03-08T12:57:16.914Z,96982.49
2018-03-08T12:59:46.314Z,96982.17
2018-03-08T13:02:15.472Z,96977.95
2018-03-08T13:04:45.243Z,96977.81
2018-03-08T13:07:14.287Z,96979.33
2018-03-08T13:09:43.668Z,96977.25
2018-03-08T13:12:12.792Z,96971.09
2018-03-08T13:14:41.764Z,96959.29
2018-03-08T13:17:10.862Z,96955.39
2018-03-08T13:19:40.486Z,96967.41
2018-03-08T13:22:10.271Z,96979.80
2018-03-08T13:24:39.448Z,96960.83
2018-03-08T13:27:09.226Z,96960.29
2018-03-08T13:29:38.776Z,96961.89
2018-03-08T13:32:08.185Z,96958.50
2018-03-08T13:34:38.593Z,96947.70
2018-03-08T13:37:08.736Z,96957.22
2018-03-08T13:39:37.822Z,96951.74
2018-03-08T13:42:07.078Z,96952.16
2018-03-08T13:44:36.083Z,96948.80
2018-03-08T13:47:05.297Z,96948.50
2018-03-08T13:49:39.022Z,96940.58
2018-03-08T13:52:08.585Z,96949.23
2018-03-08T13:54:37.768Z,96939.94
2018-03-08T13:57:07.232Z,96932.84
2018-03-08T13:59:36.160Z,96929.13
2018-03-08T14:02:06.042Z,96928.52
2018-03-08T14:04:35.119Z,96928.02
2018-03-08T14:07:06.894Z,96918.09
2018-03-08T14:09:35.979Z,96911.91
2018-03-08T14:12:05.664Z,96909.66
2018-03-08T14:14:34.889Z,96908.16
2018-03-08T14:17:04.633Z,96907.37
2018-03-08T14:19:33.733Z,96906.37
2018-03-08T14:22:02.911Z,96903.06
2018-03-08T14:24:31.970Z,96900.39
2018-03-08T14:27:05.762Z,96898.30
2018-03-08T14:29:35.280Z,96894.88
2018-03-08T14:32:07.951Z,96906.61
2018-03-08T14:34:37.072Z,96894.52
2018-03-08T14:37:06.213Z,96890.16
2018-03-08T14:39:35.227Z,96891.39
2018-03-08T14:42:04.319Z,96883.55
2018-03-08T14:44:33.545Z,96877.48
2018-03-08T14:47:02.617Z,96877.97
2018-03-08T14:49:31.797Z,96870.88
2018-03-08T14:52:00.835Z,96867.45
2018-03-08T14:54:29.886Z,96862.05
2018-03-08T14:57:06.877Z,96865.62
2018-03-08T14:59:49.439Z,96859.43
2018-03-08T15:02:19.740Z,96865.55
2018-03-08T15:04:48.981Z,96870.10
2018-03-08T15:07:18.082Z,96869.97
2018-03-08T15:09:47.165Z,96865.97
2018-03-08T15:12:17.686Z,96871.20
2018-03-08T15:14:46.602Z,96862.67
2018-03-08T15:17:15.741Z,96860.34
2018-03-08T15:19:44.744Z,96861.39
2018-03-08T15:22:14.151Z,96857.80
2018-03-08T15:24:43.312Z,96855.52
2018-03-08T15:27:12.457Z,96848.80
2018-03-08T15:29:42.444Z,96851.47
2018-03-08T15:32:11.845Z,96854.55
2018-03-08T15:34:40.880Z,96857.05
2018-03-08T15:37:10.091Z,96842.22
2018-03-08T15:39:39.018Z,96855.03
2018-03-08T15:42:08.587Z,96849.80
2018-03-08T15:44:38.383Z,96853.96
2018-03-08T15:47:07.577Z,96854.05
2018-03-08T15:49:36.725Z,96856.84
2018-03-08T15:52:05.765Z,96859.80
2018-03-08T15:54:34.739Z,96871.23
2018-03-08T15:57:03.848Z,96855.63
2018-03-08T15:59:33.141Z,96851.98
2018-03-08T16:02:02.239Z,96842.55
2018-03-08T16:04:31.437Z,96853.78
2018-03-08T16:07:14.643Z,96860.05
2018-03-08T16:09:59.562Z,96863.78
2018-03-08T16:12:28.700Z,96862.02
2018-03-08T16:14:58.293Z,96858.06
2018-03-08T16:17:27.551Z,96873.25
2018-03-08T16:19:56.549Z,96861.30
2018-03-08T16:22:25.615Z,96858.09
2018-03-08T16:24:55.908Z,96858.59
2018-03-08T16:27:24.979Z,96857.14
2018-03-08T16:29:54.086Z,96859.17
2018-03-08T16:32:23.286Z,96863.20
2018-03-08T16:34:52.731Z,96862.72
2018-03-08T16:37:22.306Z,96861.67
2018-03-08T16:39:51.366Z,96869.78
2018-03-08T16:43:12.993Z,96868.17
2018-03-08T16:45:42.757Z,96868.49
2018-03-08T16:48:12.306Z,96868.70
2018-03-08T16:50:41.245Z,96861.84
2018-03-08T16:53:10.555Z,96869.09
2018-03-08T16:55:40.160Z,96858.30
2018-03-08T16:58:09.728Z,96855.55
2018-03-08T17:00:38.963Z,96858.80
2018-03-08T17:03:08.674Z,96860.21
2018-03-08T17:05:37.836Z,96859.77
2018-03-08T17:08:06.890Z,96860.95
2018-03-08T17:10:36.138Z,96857.19
2018-03-08T17:13:05.467Z,96859.17
2018-03-08T17:15:34.587Z,96854.65
2018-03-08T17:18:03.788Z,96853.84
2018-03-08T17:20:40.464Z,96852.75
2018-03-08T17:23:10.001Z,96851.58
2018-03-08T17:25:39.439Z,96851.02
2018-03-08T17:28:10.133Z,96848.66
2018-03-08T17:30:39.403Z,96850.48
2018-03-08T17:33:08.800Z,96844.33
2018-03-08T17:35:39.214Z,96850.22
2018-03-08T17:38:09.139Z,96849.91
2018-03-08T17:40:38.353Z,96858.23
2018-03-08T17:43:07.443Z,96859.11
2018-03-08T17:45:36.544Z,96867.91
2018-03-08T17:48:05.911Z,96881.92
2018-03-08T17:50:36.527Z,96886.48
2018-03-08T17:53:05.561Z,96885.80
2018-03-08T17:55:34.670Z,96890.50
2018-03-08T17:58:03.849Z,96898.05
2018-03-08T18:00:34.833Z,96901.94
2018-03-08T18:03:04.317Z,96901.33
2018-03-08T18:05:33.444Z,96899.09
2018-03-08T18:08:02.569Z,96908.22
2018-03-08T18:10:32.124Z,96913.11
2018-03-08T18:13:01.076Z,96920.47
2018-03-08T18:15:30.274Z,96919.91
2018-03-08T18:17:59.458Z,96921.78
2018-03-08T18:20:28.996Z,96925.03
2018-03-08T18:22:58.596Z,96931.27
2018-03-08T18:25:27.870Z,96929.94
2018-03-08T18:27:57.170Z,96935.87
2018-03-08T18:30:26.275Z,96939.73
2018-03-08T18:32:55.661Z,96939.94
2018-03-08T18:35:24.647Z,96939.19
2018-03-08T18:37:54.050Z,96943.09
2018-03-08T18:40:23.105Z,96952.94
2018-03-08T18:42:52.804Z,96951.36
2018-03-08T18:45:22.058Z,96950.11
2018-03-08T18:47:51.126Z,96957.23
2018-03-08T18:50:21.420Z,96957.54
2018-03-08T18:52:50.490Z,96958.76
2018-03-08T18:55:20.010Z,96959.81
2018-03-08T18:57:49.083Z,96965.20
2018-03-08T19:00:18.374Z,96965.98
2018-03-08T19:02:48.379Z,96970.38
2018-03-08T19:05:17.710Z,96973.03
2018-03-08T19:07:47.479Z,96970.51
2018-03-08T19:10:17.381Z,96978.04
2018-03-08T19:12:47.358Z,96980.03
2018-03-08T19:18:10.658Z,96983.17
2018-03-08T19:20:56.795Z,96983.48
2018-03-08T19:23:26.025Z,96992.58
2018-03-08T19:25:56.898Z,96992.38
2018-03-08T19:28:26.376Z,96982.64
2018-03-08T19:34:04.076Z,96983.55
2018-03-08T19:36:34.174Z,96987.06
2018-03-08T19:39:14.349Z,96991.53
2018-03-08T19:41:44.025Z,96992.56
2018-03-08T19:44:13.555Z,97000.02
2018-03-08T19:46:42.884Z,97000.02
2018-03-08T19:49:13.185Z,97008.45
2018-03-08T19:51:42.728Z,97010.84
2018-03-08T19:54:16.164Z,97006.86
2018-03-08T19:56:46.499Z,97013.34
2018-03-08T19:59:15.847Z,97007.64
2018-03-08T20:01:45.082Z,97009.33
2018-03-08T20:04:16.897Z,97016.60
2018-03-08T20:06:47.813Z,97012.72
2018-03-08T20:09:17.471Z,97012.70
2018-03-08T20:11:47.508Z,97015.66
2018-03-08T20:14:19.779Z,97021.98
2018-03-08T20:16:49.486Z,97022.25
2018-03-08T20:19:19.124Z,97016.64
2018-03-08T20:21:48.492Z,97018.38
2018-03-08T20:24:17.717Z,97024.62
2018-03-08T20:26:48.133Z,97023.80
2018-03-08T20:29:17.716Z,97028.44
2018-03-08T20:31:47.320Z,97035.42
2018-03-08T20:34:21.301Z,97034.30
2018-03-08T20:36:50.933Z,97040.15
2018-03-08T20:39:21.002Z,97044.36
2018-03-08T20:41:50.945Z,97044.22
2018-03-08T20:44:21.772Z,97049.23
2018-03-08T20:46:51.529Z,97049.64
2018-03-08T20:49:21.430Z,97050.89
2018-03-08T20:51:51.194Z,97048.61
2018-03-08T20:54:21.658Z,97049.25
2018-03-08T20:56:51.718Z,97045.86
2018-03-08T20:59:21.568Z,97043.83
2018-03-08T21:07:03.667Z,97050.84
2018-03-08T21:09:34.890Z,97060.17
2018-03-08T21:12:04.418Z,97058.30
2018-03-08T21:14:34.311Z,97058.80
2018-03-08T21:19:57.038Z,97056.80
2018-03-08T21:22:33.893Z,97073.64
2018-03-08T21:25:03.876Z,97077.78
2018-03-08T21:27:34.144Z,97079.70
2018-03-08T21:30:05.389Z,97082.92
2018-03-08T21:32:34.949Z,97081.61
2018-03-08T21:35:04.322Z,97083.34
2018-03-08T21:37:33.303Z,97082.02
2018-03-08T21:40:03.321Z,97089.16
2018-03-08T21:42:33.812Z,97098.61
2018-03-08T21:45:02.918Z,97092.11
2018-03-08T21:47:32.055Z,97104.29
2018-03-08T21:50:01.222Z,97105.02
2018-03-08T21:52:30.387Z,97100.09
2018-03-08T21:55:25.241Z,97108.82
2018-03-08T22:01:47.151Z,97117.25
2018-03-08T22:07:25.004Z,97120.77
2018-03-08T22:11:04.463Z,97129.04
2018-03-08T22:13:33.572Z,97138.23
2018-03-08T22:16:04.907Z,97145.28
2018-03-08T22:18:33.817Z,97148.86
2018-03-08T22:21:03.010Z,97156.20
2018-03-08T22:23:32.065Z,97161.89
2018-03-08T22:26:11.857Z,97188.09
2018-03-08T22:28:45.030Z,97215.39
2018-03-08T22:31:14.330Z,97220.25
2018-03-08T22:33:44.905Z,97216.60
2018-03-08T22:36:14.207Z,97212.56
2018-03-08T22:38:43.582Z,97222.60
2018-03-08T22:41:12.736Z,97223.21
2018-03-08T22:43:43.359Z,97221.44
2018-03-08T22:46:12.967Z,97247.52
2018-03-08T22:48:43.124Z,97253.35
2018-03-08T22:51:12.586Z,97269.84
2018-03-08T22:53:43.735Z,97281.75
2018-03-08T22:56:12.992Z,97280.28
2018-03-08T22:58:42.191Z,97280.37
2018-03-08T23:01:16.568Z,97270.22
2018-03-08T23:03:45.914Z,97272.12
2018-03-08T23:08:43.701Z,97276.35
2018-03-08T23:11:13.075Z,97294.08
2018-03-08T23:13:42.521Z,97301.95
2018-03-08T23:16:11.975Z,97287.24
2018-03-08T23:18:41.642Z,97301.85
2018-03-08T23:21:40.303Z,97308.06
2018-03-08T23:24:22.012Z,97315.47
2018-03-08T23:26:51.377Z,97294.09
2018-03-08T23:29:21.703Z,97294.94
2018-03-08T23:31:51.292Z,97306.17
2018-03-08T23:34:20.666Z,97322.91
2018-03-08T23:36:50.114Z,97326.94
2018-03-08T23:39:21.816Z,97327.57
2018-03-08T23:41:51.363Z,97335.56
2018-03-08T23:44:22.155Z,97343.02
2018-03-08T23:46:51.445Z,97341.02
2018-03-08T23:49:20.990Z,97344.70
2018-03-08T23:51:50.616Z,97344.73
2018-03-08T23:54:20.074Z,97341.60
2018-03-08T23:56:50.046Z,97335.82
2018-03-08T23:59:19.474Z,97329.73
